Time;durP1;ratioP1;P1;durP2;ratioP2;P2;SDS_P1;SDS_P2;PMS_P1;PMS_P2;Temp;Humidity;BMP_temperature;BMP_pressure;BME280_temperature;BME280_humidity;BME280_pressure;Samples;Min_cycle;Max_cycle;Signal;HPM_P1;HPM_P2
2022/05/19 00:00:22;;;;;;;21.88;18.50;;;19.60;99.90;;;;;;4975293;28;20074;-83
2022/05/19 00:02:47;;;;;;;20.85;16.70;;;19.60;99.90;;;;;;4959689;28;20447;-84
2022/05/19 00:05:13;;;;;;;18.80;16.70;;;19.60;99.90;;;;;;4974797;28;20050;-85
2022/05/19 00:07:38;;;;;;;19.83;16.30;;;19.60;99.90;;;;;;4959022;28;20073;-84
2022/05/19 00:10:04;;;;;;;19.23;17.15;;;19.50;99.90;;;;;;4958673;28;20038;-84
2022/05/19 00:12:30;;;;;;;20.60;18.33;;;19.50;99.90;;;;;;4975434;28;20399;-84
2022/05/19 00:14:57;;;;;;;23.60;20.92;;;19.40;99.90;;;;;;4951157;28;20592;-84
2022/05/19 00:17:23;;;;;;;24.35;19.15;;;19.40;99.90;;;;;;4976204;28;20125;-84
2022/05/19 00:19:49;;;;;;;24.45;20.38;;;19.40;99.90;;;;;;4974679;28;20133;-84
2022/05/19 00:22:14;;;;;;;23.08;20.77;;;19.40;99.90;;;;;;4959455;28;20138;-84
2022/05/19 00:24:40;;;;;;;22.83;20.52;;;19.30;99.90;;;;;;4954480;28;20848;-84
2022/05/19 00:27:06;;;;;;;22.00;19.25;;;19.30;99.90;;;;;;4971464;28;20050;-84
2022/05/19 00:29:31;;;;;;;20.77;18.67;;;19.20;99.90;;;;;;4975558;28;20038;-84
2022/05/19 00:31:57;;;;;;;23.38;20.27;;;19.10;99.90;;;;;;4974513;28;20077;-84
2022/05/19 00:34:23;;;;;;;23.38;20.98;;;19.10;99.90;;;;;;4959446;28;20048;-84
2022/05/19 00:36:55;;;;;;;22.88;19.67;;;19.00;99.90;;;;;;4959215;28;20129;-83
2022/05/19 00:39:21;;;;;;;24.00;20.60;;;19.00;99.90;;;;;;4975365;28;20049;-83
2022/05/19 00:41:47;;;;;;;25.92;21.30;;;18.90;99.90;;;;;;4959141;28;20039;-84
2022/05/19 00:44:13;;;;;;;26.67;23.45;;;18.90;99.90;;;;;;4974516;28;20038;-84
2022/05/19 00:46:50;;;;;;;27.08;24.17;;;18.90;99.90;;;;;;4959185;28;20045;-84
2022/05/19 00:49:31;;;;;;;27.67;24.08;;;18.90;99.90;;;;;;4973907;28;20563;-84
2022/05/19 00:52:02;;;;;;;25.55;23.00;;;18.90;99.90;;;;;;4958870;28;20069;-84
2022/05/19 00:54:32;;;;;;;24.10;21.50;;;18.80;99.90;;;;;;4958557;28;20073;-84
2022/05/19 00:57:12;;;;;;;24.50;21.88;;;18.80;99.90;;;;;;4959171;28;20508;-84
2022/05/19 00:59:50;;;;;;;26.05;22.63;;;18.80;99.90;;;;;;4974429;28;20047;-84
2022/05/19 01:02:19;;;;;;;25.25;22.60;;;18.80;99.90;;;;;;4974301;28;20046;-84
2022/05/19 01:04:55;;;;;;;25.27;20.85;;;18.80;99.90;;;;;;4958721;28;20046;-84
2022/05/19 01:07:27;;;;;;;24.73;21.42;;;18.80;99.90;;;;;;4974269;28;20673;-83
2022/05/19 01:09:56;;;;;;;24.83;21.70;;;18.70;99.90;;;;;;4975178;28;20038;-84
2022/05/19 01:12:22;;;;;;;26.15;23.35;;;18.70;99.90;;;;;;4958519;28;20393;-83
2022/05/19 01:14:48;;;;;;;25.20;22.50;;;18.70;99.90;;;;;;4974463;28;20039;-84
2022/05/19 01:17:13;;;;;;;25.33;22.70;;;18.70;99.90;;;;;;4958544;28;20045;-84
2022/05/19 01:19:45;;;;;;;26.85;24.15;;;18.70;99.90;;;;;;4965039;28;20046;-83
2022/05/19 01:22:34;;;;;;;26.98;24.13;;;18.70;99.90;;;;;;4958362;28;20073;-84
2022/05/19 01:25:20;;;;;;;30.25;25.38;;;18.70;99.90;;;;;;4957724;28;20166;-83
2022/05/19 01:27:46;;;;;;;28.52;25.52;;;18.70;99.90;;;;;;4958057;28;20034;-84
2022/05/19 01:30:12;;;;;;;27.80;25.10;;;18.60;99.90;;;;;;4958258;28;20504;-84
2022/05/19 01:32:38;;;;;;;29.00;25.70;;;18.60;99.90;;;;;;4973726;28;20041;-84
2022/05/19 01:35:05;;;;;;;26.67;24.02;;;18.60;99.90;;;;;;4958642;28;20042;-84
2022/05/19 01:37:30;;;;;;;26.20;23.42;;;18.50;99.90;;;;;;4968465;28;20039;-84
2022/05/19 01:40:27;;;;;;;26.52;23.52;;;18.50;99.90;;;;;;4972062;28;20521;-84
2022/05/19 01:43:14;;;;;;;26.08;23.30;;;18.40;99.90;;;;;;4957630;28;20054;-84
2022/05/19 01:45:46;;;;;;;27.00;24.13;;;18.40;99.90;;;;;;4973601;28;20038;-84
2022/05/19 01:48:16;;;;;;;29.05;26.15;;;18.40;99.90;;;;;;4973986;28;20495;-84
2022/05/19 01:50:54;;;;;;;28.15;25.23;;;18.30;99.90;;;;;;4973551;28;20042;-84
2022/05/19 01:53:45;;;;;;;28.92;25.75;;;18.40;99.90;;;;;;4957716;28;20156;-84
2022/05/19 01:56:32;;;;;;;30.52;27.45;;;18.40;99.90;;;;;;4974402;28;20034;-84
2022/05/19 01:59:24;;;;;;;29.23;26.27;;;18.40;99.90;;;;;;4957783;28;20046;-84
2022/05/19 02:02:10;;;;;;;28.65;25.73;;;18.30;99.90;;;;;;4974124;28;20049;-84
2022/05/19 02:04:52;;;;;;;24.83;22.33;;;18.30;99.90;;;;;;4972231;28;20113;-84
2022/05/19 02:07:19;;;;;;;26.35;23.75;;;18.30;99.90;;;;;;4974182;28;20416;-84
2022/05/19 02:09:51;;;;;;;27.58;24.83;;;18.20;99.90;;;;;;4957177;28;20047;-84
2022/05/19 02:12:17;;;;;;;29.38;26.50;;;18.30;99.90;;;;;;4973063;28;20100;-84
2022/05/19 02:14:54;;;;;;;29.25;26.35;;;18.30;99.90;;;;;;4973751;28;20049;-84
2022/05/19 02:17:22;;;;;;;29.95;27.02;;;18.30;99.90;;;;;;4973146;28;20065;-84
2022/05/19 02:19:51;;;;;;;32.08;28.88;;;18.30;99.90;;;;;;4973540;28;20121;-84
2022/05/19 02:22:22;;;;;;;31.08;27.70;;;18.30;99.90;;;;;;4956068;28;20172;-84
2022/05/19 02:24:56;;;;;;;31.33;28.27;;;18.30;99.90;;;;;;4955147;28;20042;-84
2022/05/19 02:27:40;;;;;;;32.70;29.00;;;18.40;99.90;;;;;;4973658;28;20046;-84
2022/05/19 02:30:09;;;;;;;35.25;31.55;;;18.40;99.90;;;;;;4960381;28;20081;-85
2022/05/19 02:32:35;;;;;;;32.17;28.95;;;18.40;99.90;;;;;;4977436;28;20045;-84
2022/05/19 02:35:02;;;;;;;33.53;30.15;;;18.40;99.90;;;;;;4960772;28;20069;-84
2022/05/19 02:37:27;;;;;;;34.50;30.90;;;18.40;99.90;;;;;;4957990;28;20129;-84
2022/05/19 02:39:53;;;;;;;33.95;30.63;;;18.40;99.90;;;;;;4958005;28;20130;-84
2022/05/19 02:42:18;;;;;;;34.38;30.98;;;18.40;99.90;;;;;;4972921;28;20046;-84
2022/05/19 02:44:44;;;;;;;33.25;29.75;;;18.40;99.90;;;;;;4960818;28;20041;-84
2022/05/19 02:47:10;;;;;;;33.60;30.27;;;18.40;99.90;;;;;;4976199;28;20040;-84
2022/05/19 02:49:35;;;;;;;35.08;31.60;;;18.40;99.90;;;;;;4960726;28;20528;-83
2022/05/19 02:52:01;;;;;;;35.05;31.42;;;18.40;99.90;;;;;;4976080;28;20030;-84
2022/05/19 02:54:27;;;;;;;34.63;31.05;;;18.40;99.90;;;;;;4976550;28;20046;-84
2022/05/19 02:56:52;;;;;;;36.00;32.30;;;18.40;99.90;;;;;;4977386;28;20053;-84
2022/05/19 02:59:18;;;;;;;35.78;31.98;;;18.40;99.90;;;;;;4975952;28;20038;-84
2022/05/19 03:01:43;;;;;;;35.90;32.40;;;18.40;99.90;;;;;;4977060;28;20081;-84
2022/05/19 03:04:09;;;;;;;37.15;33.50;;;18.40;99.90;;;;;;4976330;28;20050;-84
2022/05/19 03:06:35;;;;;;;37.38;33.50;;;18.40;99.90;;;;;;4957177;28;20043;-84
2022/05/19 03:09:01;;;;;;;34.88;31.58;;;18.40;99.90;;;;;;4957528;28;20050;-84
2022/05/19 03:11:26;;;;;;;36.58;32.90;;;18.40;99.90;;;;;;4990154;28;20121;-84
2022/05/19 03:13:52;;;;;;;37.08;33.28;;;18.40;99.90;;;;;;4957134;28;20037;-84
2022/05/19 03:16:17;;;;;;;36.88;33.22;;;18.40;99.90;;;;;;4958235;28;20151;-84
2022/05/19 03:18:43;;;;;;;40.00;36.10;;;18.40;99.90;;;;;;4968771;28;20089;-84
2022/05/19 03:21:08;;;;;;;40.13;35.92;;;18.30;99.90;;;;;;4976791;28;20082;-84
2022/05/19 03:23:34;;;;;;;39.47;35.47;;;18.30;99.90;;;;;;4959643;28;20038;-84
2022/05/19 03:25:59;;;;;;;38.47;34.67;;;18.30;99.90;;;;;;4976274;28;20523;-84
2022/05/19 03:28:25;;;;;;;38.28;34.42;;;18.30;99.90;;;;;;4976395;28;20034;-84
2022/05/19 03:30:50;;;;;;;38.97;35.22;;;18.30;99.90;;;;;;4976853;28;20463;-84
2022/05/19 03:33:16;;;;;;;40.42;36.30;;;18.30;99.90;;;;;;4976705;28;20105;-84
2022/05/19 03:35:43;;;;;;;39.75;35.78;;;18.30;99.90;;;;;;4976960;28;20558;-84
2022/05/19 03:38:10;;;;;;;39.15;35.15;;;18.30;99.90;;;;;;4975672;28;20058;-84
2022/05/19 03:40:35;;;;;;;39.13;35.13;;;18.30;99.90;;;;;;4976619;28;20081;-84
2022/05/19 03:43:01;;;;;;;39.85;35.95;;;18.30;99.90;;;;;;4976025;28;20073;-84
2022/05/19 03:45:27;;;;;;;41.08;36.95;;;18.30;99.90;;;;;;4975694;28;20499;-84
2022/05/19 03:47:52;;;;;;;39.13;35.30;;;18.30;99.90;;;;;;4976261;28;20125;-84
2022/05/19 03:50:18;;;;;;;39.63;35.83;;;18.20;99.90;;;;;;4975826;28;20472;-83
2022/05/19 03:52:44;;;;;;;41.78;37.58;;;18.20;99.90;;;;;;4976110;28;20049;-84
2022/05/19 03:55:13;;;;;;;39.63;35.80;;;18.20;99.90;;;;;;4959114;28;20373;-84
2022/05/19 03:57:39;;;;;;;40.83;36.72;;;18.20;99.90;;;;;;4975915;28;20067;-83
2022/05/19 04:00:06;;;;;;;40.13;36.25;;;18.20;99.90;;;;;;4976323;28;20411;-84
2022/05/19 04:02:31;;;;;;;39.65;35.88;;;18.20;99.90;;;;;;4941825;28;20621;-84
2022/05/19 04:04:57;;;;;;;39.33;35.50;;;18.20;99.90;;;;;;4956440;28;20558;-84
2022/05/19 04:07:22;;;;;;;40.15;36.28;;;18.10;99.90;;;;;;4960323;28;20408;-84
2022/05/19 04:09:48;;;;;;;39.08;35.35;;;18.20;99.90;;;;;;4975900;28;20503;-84
2022/05/19 04:12:19;;;;;;;38.35;34.55;;;18.20;99.90;;;;;;4976069;28;20042;-84
2022/05/19 04:14:44;;;;;;;43.90;39.35;;;18.20;99.90;;;;;;4975385;28;20034;-84
2022/05/19 04:17:10;;;;;;;40.60;36.72;;;18.10;99.90;;;;;;4976351;28;20558;-84
2022/05/19 04:19:35;;;;;;;38.88;35.17;;;18.20;99.90;;;;;;4975219;28;20486;-84
2022/05/19 04:22:01;;;;;;;40.70;36.50;;;18.20;99.90;;;;;;4975246;28;20389;-84
2022/05/19 04:24:27;;;;;;;41.90;37.83;;;18.20;99.90;;;;;;4975120;28;20463;-84
2022/05/19 04:26:53;;;;;;;39.47;35.53;;;18.20;99.90;;;;;;4975177;28;20034;-84
2022/05/19 04:29:18;;;;;;;39.42;35.75;;;18.20;99.90;;;;;;4975590;28;20511;-84
2022/05/19 04:31:44;;;;;;;42.63;38.40;;;18.20;99.90;;;;;;4975261;28;20105;-84
2022/05/19 04:34:09;;;;;;;43.13;39.03;;;18.20;99.90;;;;;;4975165;28;20035;-84
2022/05/19 04:36:35;;;;;;;41.05;37.13;;;18.20;99.90;;;;;;4975416;28;20449;-83
2022/05/19 04:39:01;;;;;;;39.92;36.17;;;18.20;99.90;;;;;;4975027;28;20393;-84
2022/05/19 04:41:26;;;;;;;40.42;36.63;;;18.20;99.90;;;;;;4959052;28;20042;-84
2022/05/19 04:43:52;;;;;;;43.17;39.10;;;18.30;99.90;;;;;;4973138;28;20412;-84
2022/05/19 04:46:18;;;;;;;41.75;37.85;;;18.30;99.90;;;;;;4958972;28;20050;-84
2022/05/19 04:48:43;;;;;;;41.35;37.35;;;18.30;99.90;;;;;;4973594;28;20479;-84
2022/05/19 04:51:09;;;;;;;41.50;37.42;;;18.40;99.90;;;;;;4957871;28;20527;-84
2022/05/19 04:53:35;;;;;;;41.55;37.60;;;18.40;99.90;;;;;;4975007;28;20130;-84
2022/05/19 04:56:00;;;;;;;40.88;36.92;;;18.40;99.90;;;;;;4974141;28;20062;-84
2022/05/19 04:58:29;;;;;;;40.97;37.13;;;18.50;99.90;;;;;;4974662;28;20689;-84
2022/05/19 05:00:55;;;;;;;41.47;37.40;;;18.50;99.90;;;;;;4958559;28;20070;-84
2022/05/19 05:03:22;;;;;;;40.90;37.15;;;18.50;99.90;;;;;;4973546;28;20069;-84
2022/05/19 05:05:47;;;;;;;40.13;36.38;;;18.60;99.90;;;;;;4958649;28;20364;-84
2022/05/19 05:08:13;;;;;;;41.65;37.47;;;18.60;99.90;;;;;;4957344;28;20049;-84
2022/05/19 05:10:40;;;;;;;41.50;37.38;;;18.60;99.90;;;;;;4958353;28;20427;-84
2022/05/19 05:13:12;;;;;;;41.25;37.42;;;18.60;99.90;;;;;;4957901;28;20050;-83
2022/05/19 05:15:38;;;;;;;40.45;36.75;;;18.60;99.90;;;;;;4957943;28;20407;-84
2022/05/19 05:18:05;;;;;;;38.90;35.17;;;18.70;99.90;;;;;;4973365;28;20133;-84
2022/05/19 05:20:31;;;;;;;39.35;35.65;;;18.70;99.90;;;;;;4973846;28;20435;-84
2022/05/19 05:22:57;;;;;;;35.95;32.65;;;18.80;99.90;;;;;;4958213;28;20031;-84
2022/05/19 05:25:22;;;;;;;32.33;29.23;;;18.80;99.90;;;;;;4954722;28;20100;-84
2022/05/19 05:27:48;;;;;;;27.95;25.27;;;19.00;99.90;;;;;;4972715;28;20042;-84
2022/05/19 05:30:14;;;;;;;27.95;25.30;;;19.00;99.90;;;;;;4974687;28;20043;-84
2022/05/19 05:32:40;;;;;;;28.02;25.17;;;19.20;99.90;;;;;;4973773;28;20034;-84
2022/05/19 05:35:08;;;;;;;27.60;24.67;;;19.30;99.90;;;;;;4958336;28;20176;-84
2022/05/19 05:37:34;;;;;;;35.42;25.02;;;19.40;99.90;;;;;;4974110;28;20108;-84
2022/05/19 05:39:59;;;;;;;26.65;23.92;;;19.40;99.90;;;;;;4974144;28;20467;-84
2022/05/19 05:42:25;;;;;;;25.13;22.50;;;19.50;99.90;;;;;;4957840;28;20048;-84
2022/05/19 05:44:51;;;;;;;24.40;21.73;;;19.50;99.90;;;;;;4956379;28;20512;-84
2022/05/19 05:47:17;;;;;;;25.00;22.50;;;19.60;99.90;;;;;;4974081;28;20415;-83
2022/05/19 05:49:42;;;;;;;25.35;22.85;;;19.60;99.90;;;;;;4990962;28;20053;-84
2022/05/19 05:52:08;;;;;;;24.10;21.15;;;19.70;99.90;;;;;;4972955;28;20511;-84
2022/05/19 05:54:34;;;;;;;21.75;19.55;;;19.80;99.90;;;;;;4990250;28;20042;-84
2022/05/19 05:57:00;;;;;;;21.52;19.42;;;19.90;99.90;;;;;;4950063;28;20042;-84
2022/05/19 05:59:26;;;;;;;21.42;19.23;;;20.00;99.90;;;;;;4957890;28;20073;-84
2022/05/19 06:01:52;;;;;;;20.60;18.27;;;20.10;99.90;;;;;;4991517;28;20085;-84
2022/05/19 06:04:18;;;;;;;20.58;18.42;;;20.20;99.90;;;;;;4957416;28;20050;-84
2022/05/19 06:06:45;;;;;;;21.08;18.85;;;20.30;99.90;;;;;;4972781;28;20069;-84
2022/05/19 06:09:12;;;;;;;20.30;18.13;;;20.30;99.90;;;;;;4957628;28;20121;-84
2022/05/19 06:11:37;;;;;;;18.10;16.20;;;20.30;99.90;;;;;;4974220;28;20042;-83
2022/05/19 06:14:04;;;;;;;19.75;17.65;;;20.40;99.90;;;;;;4973220;28;20052;-84
2022/05/19 06:16:29;;;;;;;20.27;17.95;;;20.30;99.90;;;;;;4974293;28;20105;-84
2022/05/19 06:18:55;;;;;;;19.25;16.58;;;20.40;99.90;;;;;;4973608;28;20467;-84
2022/05/19 06:21:21;;;;;;;17.23;15.00;;;20.40;99.90;;;;;;4957433;28;20042;-84
2022/05/19 06:23:47;;;;;;;19.77;15.85;;;20.40;99.90;;;;;;4956971;28;20046;-84
2022/05/19 06:26:13;;;;;;;17.85;14.85;;;20.40;99.90;;;;;;4957077;28;20121;-84
2022/05/19 06:28:38;;;;;;;15.73;13.70;;;20.40;99.90;;;;;;4973478;28;20073;-84
2022/05/19 06:31:05;;;;;;;17.50;14.25;;;20.50;99.90;;;;;;4956933;28;20045;-84
2022/05/19 06:33:33;;;;;;;17.10;13.10;;;20.50;99.90;;;;;;4971669;28;20057;-84
2022/05/19 06:35:59;;;;;;;16.15;11.02;;;20.70;99.90;;;;;;4971715;28;20057;-84
2022/05/19 06:38:25;;;;;;;12.45;8.95;;;20.70;99.90;;;;;;4938953;28;20038;-84
2022/05/19 06:40:51;;;;;;;11.95;8.00;;;20.90;99.90;;;;;;4954762;28;20543;-84
2022/05/19 06:43:19;;;;;;;12.63;8.23;;;20.90;99.90;;;;;;4946166;28;20043;-84
2022/05/19 06:45:45;;;;;;;14.13;8.75;;;21.00;99.90;;;;;;4962567;28;20053;-84
2022/05/19 06:48:11;;;;;;;12.25;8.77;;;21.10;99.90;;;;;;4974109;28;20042;-84
2022/05/19 06:50:37;;;;;;;13.30;8.20;;;21.20;99.90;;;;;;4972713;28;20579;-84
2022/05/19 06:53:03;;;;;;;14.60;8.43;;;21.30;99.90;;;;;;4957393;28;20042;-84
2022/05/19 06:55:34;;;;;;;12.05;7.78;;;21.30;99.90;;;;;;4958307;28;20452;-84
2022/05/19 06:58:00;;;;;;;11.48;7.50;;;21.30;99.90;;;;;;4974137;28;20543;-84
2022/05/19 07:00:27;;;;;;;15.05;7.82;;;21.40;99.90;;;;;;4974335;28;20500;-85
2022/05/19 07:02:57;;;;;;;15.35;7.82;;;21.40;99.90;;;;;;4957842;28;20042;-84
2022/05/19 07:05:26;;;;;;;11.13;7.13;;;21.50;99.90;;;;;;4974054;28;20043;-84
2022/05/19 07:07:52;;;;;;;10.52;6.85;;;21.50;99.90;;;;;;4957658;28;20451;-84
2022/05/19 07:10:21;;;;;;;10.95;6.57;;;21.50;99.90;;;;;;4974388;28;20038;-85
2022/05/19 07:12:47;;;;;;;10.00;6.85;;;21.60;99.90;;;;;;4957796;28;20496;-85
2022/05/19 07:15:15;;;;;;;10.75;7.40;;;21.60;99.90;;;;;;4971083;28;20062;-82
2022/05/19 07:17:40;;;;;;;10.43;7.35;;;21.60;99.90;;;;;;4971415;28;20044;-84
2022/05/19 07:22:53;;;;;;;10.70;6.18;;;21.80;99.90;;;;;;4958827;28;20046;-84
2022/05/19 07:25:19;;;;;;;12.23;6.30;;;21.80;99.90;;;;;;4957984;28;20082;-83
2022/05/19 07:27:44;;;;;;;9.93;5.78;;;21.90;99.90;;;;;;4948134;28;20043;-83
2022/05/19 07:30:11;;;;;;;10.32;6.20;;;21.90;99.90;;;;;;4978070;28;20045;-83
2022/05/19 07:32:37;;;;;;;9.27;6.20;;;21.90;99.90;;;;;;4977143;28;20078;-84
2022/05/19 07:35:05;;;;;;;8.93;5.93;;;22.00;99.90;;;;;;4978222;28;20510;-83
2022/05/19 07:37:31;;;;;;;11.10;5.70;;;22.00;99.90;;;;;;4960471;28;20519;-84
2022/05/19 07:39:57;;;;;;;11.40;6.50;;;22.00;99.90;;;;;;4976619;28;20046;-84
2022/05/19 07:42:24;;;;;;;13.48;6.40;;;22.10;99.90;;;;;;4997015;28;20057;-84
2022/05/19 07:44:51;;;;;;;10.63;6.82;;;22.00;99.90;;;;;;4977329;28;20046;-84
2022/05/19 07:47:17;;;;;;;11.23;6.85;;;22.00;99.90;;;;;;4977076;28;20519;-85
2022/05/19 07:49:43;;;;;;;10.98;6.65;;;22.00;99.90;;;;;;4960144;28;20034;-84
2022/05/19 07:52:09;;;;;;;10.85;6.28;;;22.00;99.90;;;;;;4976933;28;20400;-85
2022/05/19 07:54:35;;;;;;;11.10;7.90;;;21.90;99.90;;;;;;4960816;28;20046;-85
2022/05/19 07:57:01;;;;;;;12.55;7.30;;;21.90;99.90;;;;;;4961154;28;20499;-84
2022/05/19 07:59:26;;;;;;;16.60;7.88;;;21.90;99.90;;;;;;4976446;28;20042;-84
2022/05/19 08:01:54;;;;;;;11.90;7.95;;;21.80;99.90;;;;;;4960803;28;20044;-84
2022/05/19 08:04:21;;;;;;;14.85;8.40;;;21.80;99.90;;;;;;4976612;28;20522;-84
2022/05/19 08:06:48;;;;;;;15.23;8.60;;;21.80;99.90;;;;;;4960084;28;20081;-84
2022/05/19 08:17:50;;;;;;;14.65;9.40;;;21.90;99.90;;;;;;4976264;28;20047;-84
2022/05/19 08:20:18;;;;;;;12.43;9.75;;;22.00;99.90;;;;;;4976772;28;20042;-83
2022/05/19 08:22:44;;;;;;;13.48;10.95;;;22.00;99.90;;;;;;4974637;28;20173;-84
2022/05/19 08:25:11;;;;;;;13.98;10.10;;;22.10;99.90;;;;;;4959810;28;20065;-84
2022/05/19 08:27:36;;;;;;;15.02;10.80;;;22.10;99.90;;;;;;4976056;28;20046;-84
2022/05/19 08:30:03;;;;;;;13.95;10.68;;;22.10;99.90;;;;;;4960605;28;20049;-84
2022/05/19 08:32:28;;;;;;;15.00;10.93;;;22.10;99.90;;;;;;4976431;28;20065;-84
2022/05/19 08:34:54;;;;;;;15.02;10.82;;;22.20;99.90;;;;;;4976520;28;20084;-84
2022/05/19 08:37:20;;;;;;;15.10;10.45;;;22.20;99.90;;;;;;4976146;28;20097;-84
2022/05/19 08:39:45;;;;;;;13.82;10.00;;;22.20;99.90;;;;;;4976039;28;20047;-84
2022/05/19 08:42:14;;;;;;;11.93;9.30;;;22.20;99.90;;;;;;4960075;28;20081;-84
2022/05/19 08:44:52;;;;;;;11.85;8.98;;;22.40;99.90;;;;;;4976420;28;20042;-84
2022/05/19 08:47:33;;;;;;;12.70;9.18;;;22.40;99.90;;;;;;4960155;28;20542;-84
2022/05/19 08:50:05;;;;;;;12.68;9.13;;;22.50;99.90;;;;;;4975939;28;20086;-84
2022/05/19 08:52:37;;;;;;;10.73;9.20;;;22.50;99.90;;;;;;4975079;28;20084;-84
2022/05/19 08:55:03;;;;;;;;;;;22.50;99.90;;;;;;4976677;28;20058;-84
2022/05/19 08:57:38;;;;;;;12.23;9.10;;;22.50;99.90;;;;;;4993055;28;19993;-84
2022/05/19 09:00:04;;;;;;;12.23;9.45;;;22.60;99.90;;;;;;4993170;28;20523;-84
2022/05/19 09:02:38;;;;;;;15.25;10.15;;;22.70;99.90;;;;;;4975980;28;20051;-85
2022/05/19 09:05:25;;;;;;;14.20;10.70;;;22.80;99.90;;;;;;4975827;28;20602;-85
2022/05/19 09:08:22;;;;;;;12.43;9.57;;;22.80;99.90;;;;;;4975232;28;20045;-84
2022/05/19 09:11:00;;;;;;;13.55;10.40;;;22.90;99.90;;;;;;4976079;28;20074;-85
2022/05/19 09:13:54;;;;;;;12.48;9.50;;;23.00;99.90;;;;;;4959664;28;20050;-85
2022/05/19 09:16:23;;;;;;;12.70;8.70;;;23.10;99.90;;;;;;4973543;28;20129;-85
2022/05/19 09:19:03;;;;;;;13.63;10.70;;;23.20;99.90;;;;;;4975426;28;20104;-84
2022/05/19 09:21:28;;;;;;;11.50;9.25;;;23.20;99.90;;;;;;4975584;28;20042;-84
2022/05/19 09:23:54;;;;;;;12.32;8.95;;;23.30;99.90;;;;;;4975001;28;20092;-85
2022/05/19 09:26:40;;;;;;;14.68;10.25;;;23.30;99.90;;;;;;4975603;28;20081;-85
2022/05/19 09:29:09;;;;;;;12.50;9.90;;;23.40;99.90;;;;;;4975143;28;20536;-84
2022/05/19 09:31:41;;;;;;;13.95;10.52;;;23.40;99.90;;;;;;4975606;28;20575;-85
2022/05/19 09:34:09;;;;;;;14.73;12.05;;;23.40;99.90;;;;;;4959152;28;20042;-84
2022/05/19 09:36:52;;;;;;;13.43;11.38;;;23.50;99.90;;;;;;4975127;28;20104;-85
2022/05/19 09:39:19;;;;;;;15.02;11.73;;;23.50;99.90;;;;;;4975039;28;20086;-84
2022/05/19 09:41:54;;;;;;;14.68;12.20;;;23.60;99.90;;;;;;4975214;28;20046;-85
2022/05/19 09:44:27;;;;;;;15.02;11.48;;;23.80;99.90;;;;;;4975093;28;20072;-84
2022/05/19 09:46:54;;;;;;;15.48;12.48;;;23.90;99.90;;;;;;4973882;28;20096;-84
2022/05/19 09:49:25;;;;;;;13.15;11.75;;;24.00;99.90;;;;;;4958646;28;20030;-85
2022/05/19 09:51:51;;;;;;;15.32;11.77;;;24.00;99.90;;;;;;4958772;28;20042;-85
2022/05/19 09:54:18;;;;;;;14.73;11.15;;;24.10;99.90;;;;;;4992528;28;20503;-85
2022/05/19 09:56:53;;;;;;;13.20;10.75;;;24.20;99.90;;;;;;4959139;28;20042;-85
2022/05/19 09:59:40;;;;;;;14.98;10.38;;;24.30;99.90;;;;;;4990019;28;20053;-85
2022/05/19 10:02:21;;;;;;;12.85;10.38;;;24.40;99.90;;;;;;4974597;28;20072;-85
2022/05/19 10:04:54;;;;;;;12.35;9.27;;;24.50;99.90;;;;;;4958752;28;20038;-85
2022/05/19 10:07:30;;;;;;;13.73;10.63;;;24.60;99.90;;;;;;4974996;28;20546;-85
2022/05/19 10:09:57;;;;;;;12.60;8.90;;;24.80;99.90;;;;;;4974785;28;20045;-85
2022/05/19 10:12:28;;;;;;;12.10;8.88;;;24.80;99.90;;;;;;4974966;28;20046;-85
2022/05/19 10:15:04;;;;;;;13.13;10.13;;;24.90;99.90;;;;;;4974652;28;20113;-85
2022/05/19 10:18:11;;;;;;;11.80;9.75;;;24.90;99.90;;;;;;4955500;28;20051;-84
2022/05/19 10:20:48;;;;;;;14.52;9.45;;;25.00;99.90;;;;;;4939678;28;20042;-85
2022/05/19 10:23:35;;;;;;;13.52;10.32;;;25.00;99.90;;;;;;4955453;28;20126;-85
2022/05/19 10:26:15;;;;;;;14.13;9.70;;;25.10;99.90;;;;;;4955235;28;20126;-85
2022/05/19 10:32:01;;;;;;;12.73;9.35;;;25.20;99.80;;;;;;4955607;28;20043;-84
2022/05/19 10:34:38;;;;;;;12.35;8.38;;;25.20;98.60;;;;;;4939616;28;20141;-84
2022/05/19 10:37:28;;;;;;;11.18;8.10;;;25.20;97.70;;;;;;4939432;28;20065;-85
2022/05/19 10:40:38;;;;;;;11.55;8.15;;;25.30;96.60;;;;;;4939085;28;20047;-85
2022/05/19 10:43:51;;;;;;;10.15;7.13;;;25.30;96.90;;;;;;4915833;29;20264;-85
2022/05/19 10:46:22;;;;;;;12.48;6.85;;;25.30;97.30;;;;;;4859941;29;20448;-85
2022/05/19 10:49:30;;;;;;;10.57;6.22;;;25.30;98.20;;;;;;4906331;29;20056;-85
2022/05/19 10:52:16;;;;;;;9.57;6.25;;;25.30;97.10;;;;;;4919484;29;20047;-85
2022/05/19 10:54:45;;;;;;;10.93;5.97;;;25.30;95.40;;;;;;4919442;29;20048;-85
2022/05/19 10:57:39;;;;;;;9.93;6.00;;;25.30;95.10;;;;;;4918758;29;20432;-85
2022/05/19 11:00:42;;;;;;;10.52;6.88;;;25.50;96.10;;;;;;4954389;28;20055;-85
2022/05/19 11:03:10;;;;;;;;;;;25.50;96.00;;;;;;4939023;29;20074;-85
2022/05/19 11:05:55;;;;;;;10.85;8.10;;;25.50;97.50;;;;;;4951098;29;19994;-85
2022/05/19 11:08:48;;;;;;;11.18;7.38;;;25.50;97.10;;;;;;4919002;29;20126;-85
2022/05/19 11:11:29;;;;;;;9.63;5.70;;;25.70;97.50;;;;;;4951562;29;20047;-85
2022/05/19 11:14:03;;;;;;;10.05;5.30;;;25.80;96.50;;;;;;4951142;29;20163;-84
2022/05/19 11:16:46;;;;;;;8.63;5.22;;;26.00;94.90;;;;;;4951480;29;20563;-84
2022/05/19 11:19:26;;;;;;;9.63;5.05;;;26.10;94.40;;;;;;4934211;28;20047;-84
2022/05/19 11:21:57;;;;;;;8.82;5.07;;;26.20;93.50;;;;;;4942687;28;20049;-84
2022/05/19 11:24:34;;;;;;;9.20;4.68;;;26.30;91.30;;;;;;4990880;28;20038;-84
2022/05/19 11:27:10;;;;;;;9.30;5.07;;;26.40;91.20;;;;;;4990620;28;20078;-84
2022/05/19 11:29:49;;;;;;;9.50;5.55;;;26.60;93.00;;;;;;4941936;28;20035;-84
2022/05/19 11:32:27;;;;;;;9.60;5.20;;;26.70;91.70;;;;;;4990763;28;20770;-84
2022/05/19 11:35:05;;;;;;;9.13;4.63;;;26.80;92.70;;;;;;4956929;28;20039;-84
2022/05/19 11:37:56;;;;;;;9.13;4.90;;;26.90;88.90;;;;;;4990412;28;20059;-84
2022/05/19 11:40:22;;;;;;;8.35;4.40;;;27.10;88.50;;;;;;4933053;28;20050;-84
2022/05/19 11:43:14;;;;;;;9.23;5.90;;;27.20;88.70;;;;;;4976037;28;20133;-84
2022/05/19 11:46:04;;;;;;;8.93;4.70;;;27.40;86.70;;;;;;4975467;28;20089;-84
2022/05/19 11:55:19;;;;;;;7.40;3.95;;;27.70;81.00;;;;;;4975547;28;20046;-84
2022/05/19 11:58:04;;;;;;;8.25;3.67;;;27.80;78.80;;;;;;4976024;28;20046;-84
2022/05/19 12:00:40;;;;;;;8.52;4.20;;;27.90;83.00;;;;;;4976708;28;20049;-84
2022/05/19 12:03:18;;;;;;;8.00;4.28;;;27.90;73.40;;;;;;4973818;28;20732;-84
2022/05/19 12:06:00;;;;;;;8.23;3.90;;;27.80;71.10;;;;;;4976537;28;20038;-84
2022/05/19 12:08:44;;;;;;;8.25;3.60;;;27.80;69.70;;;;;;4973591;28;20093;-84
2022/05/19 12:11:14;;;;;;;10.30;4.05;;;27.80;71.90;;;;;;4976240;28;20046;-86
2022/05/19 12:13:45;;;;;;;7.45;4.00;;;27.80;70.00;;;;;;4976510;28;20037;-86
2022/05/19 12:16:15;;;;;;;7.35;2.65;;;27.70;70.30;;;;;;4976634;28;20065;-86
2022/05/19 12:19:01;;;;;;;6.70;2.90;;;27.70;69.60;;;;;;4976897;28;20082;-85
2022/05/19 12:21:36;;;;;;;9.27;3.00;;;27.70;73.20;;;;;;4960633;28;20034;-86
2022/05/19 12:24:12;;;;;;;7.88;2.63;;;27.60;69.80;;;;;;4976504;28;20104;-86
2022/05/19 12:26:56;;;;;;;6.28;3.20;;;27.50;67.90;;;;;;4976527;28;20053;-85
2022/05/19 12:29:54;;;;;;;7.65;2.92;;;27.40;70.20;;;;;;4960387;28;20049;-85
2022/05/19 12:32:34;;;;;;;7.53;3.00;;;27.40;70.10;;;;;;4959608;28;20038;-86
2022/05/19 12:35:07;;;;;;;5.63;2.40;;;27.30;73.10;;;;;;4941617;28;20031;-86
2022/05/19 12:37:33;;;;;;;7.47;2.45;;;27.30;73.10;;;;;;4974440;28;20093;-85
2022/05/19 12:40:22;;;;;;;5.38;2.47;;;27.20;69.20;;;;;;4957249;28;20051;-85
2022/05/19 12:42:49;;;;;;;5.70;2.60;;;27.20;69.20;;;;;;4957199;28;20181;-85
2022/05/19 12:45:15;;;;;;;5.43;2.60;;;27.10;71.50;;;;;;4957477;28;20046;-85
2022/05/19 12:48:20;;;;;;;6.65;2.88;;;27.10;72.20;;;;;;4956717;28;20385;-85
2022/05/19 12:50:51;;;;;;;7.47;2.90;;;27.00;73.10;;;;;;4956869;28;20046;-85
2022/05/19 12:53:23;;;;;;;6.90;2.90;;;26.80;72.00;;;;;;4956790;28;20043;-86
2022/05/19 12:55:53;;;;;;;6.88;3.40;;;26.60;70.80;;;;;;4941469;28;20043;-86
2022/05/19 12:58:38;;;;;;;7.22;3.50;;;26.40;81.30;;;;;;4956578;28;20043;-86
2022/05/19 13:01:26;;;;;;;11.02;4.05;;;26.10;86.60;;;;;;4974509;28;20121;-85
2022/05/19 13:04:11;;;;;;;11.57;4.80;;;25.90;91.70;;;;;;4975487;28;20419;-85
2022/05/19 13:07:09;;;;;;;10.90;4.70;;;25.60;95.60;;;;;;4975407;28;20042;-85
2022/05/19 13:09:35;;;;;;;11.13;4.55;;;25.30;95.20;;;;;;4940824;28;20578;-85
2022/05/19 13:12:15;;;;;;;11.38;4.97;;;25.00;96.90;;;;;;4959377;28;20034;-85
2022/05/19 13:14:46;;;;;;;9.82;4.22;;;24.80;97.80;;;;;;4976329;28;20435;-85